Time;durP1;ratioP1;P1;durP2;ratioP2;P2;SDS_P1;SDS_P2;PMS_P1;PMS_P2;Temp;Humidity;BMP_temperature;BMP_pressure;BME280_temperature;BME280_humidity;BME280_pressure;Samples;Min_cycle;Max_cycle;Signal;HPM_P1;HPM_P2
2021/05/01 00:01:07;;;;;;;;;;;;;;;7.11;90.89;101324.47;5034103;28;2101;-78
2021/05/01 00:03:33;;;;;;;;;;;;;;;7.12;91.11;101330.75;5036313;28;1796;-78
2021/05/01 00:05:58;;;;;;;;;;;;;;;7.10;91.18;101325.56;5036407;28;2003;-78
2021/05/01 00:08:27;;;;;;;;;;;;;;;7.09;90.86;101329.44;5034998;28;1887;-78
2021/05/01 00:10:53;;;;;;;;;;;;;;;7.06;91.05;101338.31;5020116;28;1787;-78
2021/05/01 00:13:18;;;;;;;;;;;;;;;7.03;91.29;101330.69;5031825;28;2151;-78
2021/05/01 00:15:43;;;;;;;;;;;;;;;7.00;91.73;101330.47;5048747;28;1979;-78
2021/05/01 00:18:09;;;;;;;;;;;;;;;6.97;91.66;101334.63;5034387;28;1890;-78
2021/05/01 00:20:34;;;;;;;;;;;;;;;6.95;91.49;101334.13;5026322;28;1521;-78
2021/05/01 00:22:59;;;;;;;;;;;;;;;6.92;91.86;101326.50;5017861;28;2103;-77
2021/05/01 00:25:25;;;;;;;;;;;;;;;6.89;91.59;101333.44;5035455;28;1769;-79
2021/05/01 00:27:50;;;;;;;;;;;;;;;6.87;91.50;101332.09;5034085;28;1776;-78
2021/05/01 00:30:15;;;;;;;;;;;;;;;6.87;91.45;101324.69;5031862;28;1851;-77
2021/05/01 00:32:41;;;;;;;;;;;;;;;6.86;92.04;101323.06;5027847;28;1978;-80
2021/05/01 00:35:07;;;;;;;;;;;;;;;6.87;91.94;101321.13;5031848;28;2147;-78
2021/05/01 00:37:32;;;;;;;;;;;;;;;6.89;92.07;101325.19;5024262;28;1790;-78
2021/05/01 00:39:57;;;;;;;;;;;;;;;6.88;91.79;101323.56;5032963;28;2039;-78
2021/05/01 00:42:23;;;;;;;;;;;;;;;6.89;91.98;101324.41;5019614;28;1734;-78
2021/05/01 00:44:48;;;;;;;;;;;;;;;6.89;91.92;101314.22;5016726;28;1674;-78
2021/05/01 00:47:13;;;;;;;;;;;;;;;6.90;91.93;101315.03;5019760;28;1847;-80
2021/05/01 00:49:39;;;;;;;;;;;;;;;6.90;92.02;101320.53;5034363;28;1989;-78
2021/05/01 00:52:04;;;;;;;;;;;;;;;6.90;92.19;101315.03;5021635;28;1860;-77
2021/05/01 00:54:30;;;;;;;;;;;;;;;6.89;91.91;101308.72;5023436;28;1951;-77
2021/05/01 00:56:57;;;;;;;;;;;;;;;6.91;91.92;101311.97;5033895;28;1948;-78
2021/05/01 00:59:22;;;;;;;;;;;;;;;6.92;92.14;101308.13;5034271;28;2056;-78
2021/05/01 01:01:51;;;;;;;;;;;;;;;6.93;92.00;101311.69;5025348;28;1765;-78
2021/05/01 01:04:18;;;;;;;;;;;;;;;6.93;91.86;101297.94;5032300;28;1961;-78
2021/05/01 01:06:44;;;;;;;;;;;;;;;6.94;92.30;101307.81;5022375;28;1721;-78
2021/05/01 01:09:09;;;;;;;;;;;;;;;6.95;91.72;101309.44;5022731;28;1782;-78
2021/05/01 01:11:36;;;;;;;;;;;;;;;6.97;91.68;101309.94;5016647;28;1721;-78
2021/05/01 01:14:02;;;;;;;;;;;;;;;7.00;91.54;101303.81;5016372;28;2319;-78
2021/05/01 01:16:29;;;;;;;;;;;;;;;7.00;91.42;101298.34;5015959;28;935;-78
2021/05/01 01:18:56;;;;;;;;;;;;;;;7.00;91.20;101301.06;5030706;28;1915;-78
2021/05/01 01:21:22;;;;;;;;;;;;;;;6.97;91.34;101301.69;5034763;28;1675;-79
2021/05/01 01:23:48;;;;;;;;;;;;;;;6.95;91.17;101303.94;5032944;28;1910;-77
2021/05/01 01:26:14;;;;;;;;;;;;;;;6.94;91.47;101299.59;5022531;28;1698;-78
2021/05/01 01:28:39;;;;;;;;;;;;;;;6.94;91.65;101296.84;5034226;28;1990;-77
2021/05/01 01:31:05;;;;;;;;;;;;;;;6.94;90.90;101302.31;5023259;28;1861;-78
2021/05/01 01:33:31;;;;;;;;;;;;;;;6.94;91.30;101296.84;5015650;28;1963;-78
2021/05/01 01:35:56;;;;;;;;;;;;;;;6.94;91.33;101291.34;5025188;28;2062;-79
2021/05/01 01:38:21;;;;;;;;;;;;;;;6.95;91.47;101292.97;5037222;28;1879;-77
2021/05/01 01:40:47;;;;;;;;;;;;;;;6.96;91.30;101291.84;5038148;28;1823;-78
2021/05/01 01:43:12;;;;;;;;;;;;;;;6.97;91.92;101290.72;5037466;28;2447;-78
2021/05/01 01:45:37;;;;;;;;;;;;;;;6.98;91.27;101289.59;5029981;28;2117;-78
2021/05/01 01:48:03;;;;;;;;;;;;;;;6.99;91.44;101282.16;5037552;28;1822;-78
2021/05/01 01:50:29;;;;;;;;;;;;;;;6.99;91.73;101285.75;5037548;28;1935;-78
2021/05/01 01:52:55;;;;;;;;;;;;;;;6.97;91.68;101286.06;5037075;28;1922;-78
2021/05/01 01:55:22;;;;;;;;;;;;;;;6.98;91.74;101292.34;5036254;28;2018;-78
2021/05/01 01:57:49;;;;;;;;;;;;;;;6.96;91.35;101289.91;5034031;28;1874;-78
2021/05/01 02:00:18;;;;;;;;;;;;;;;6.94;91.65;101288.59;5038057;28;2214;-77
2021/05/01 02:02:44;;;;;;;;;;;;;;;6.93;91.68;101292.47;5055938;28;1991;-78
2021/05/01 02:05:10;;;;;;;;;;;;;;;6.90;91.27;101293.91;5037994;28;1657;-78
2021/05/01 02:07:36;;;;;;;;;;;;;;;6.89;91.42;101291.47;5030941;28;1840;-78
2021/05/01 02:10:03;;;;;;;;;;;;;;;6.86;91.28;101292.06;5035386;28;1942;-78
2021/05/01 02:12:28;;;;;;;;;;;;;;;6.83;91.28;101289.94;5018408;28;1007;-78
2021/05/01 02:14:54;;;;;;;;;;;;;;;6.81;91.20;101292.19;5018737;28;1835;-78
2021/05/01 02:17:19;;;;;;;;;;;;;;;6.81;91.03;101278.44;5034864;28;2040;-78
2021/05/01 02:19:45;;;;;;;;;;;;;;;6.80;91.33;101283.13;5037086;28;2201;-78
2021/05/01 02:22:10;;;;;;;;;;;;;;;6.78;91.76;101280.69;5030506;28;1707;-78
2021/05/01 02:24:35;;;;;;;;;;;;;;;6.76;91.74;101274.69;5031438;28;1982;-79
2021/05/01 02:27:01;;;;;;;;;;;;;;;6.73;91.91;101269.00;5036225;28;1818;-78
2021/05/01 02:29:26;;;;;;;;;;;;;;;6.70;91.89;101273.19;5018103;28;1807;-79
2021/05/01 02:31:52;;;;;;;;;;;;;;;6.68;92.12;101272.69;5026692;28;1857;-78
2021/05/01 02:34:17;;;;;;;;;;;;;;;6.68;91.86;101266.34;5026496;28;1963;-78
2021/05/01 02:36:42;;;;;;;;;;;;;;;6.67;91.59;101267.50;5018409;28;2022;-78
2021/05/01 02:39:08;;;;;;;;;;;;;;;6.67;92.06;101272.97;5026541;28;2155;-77
2021/05/01 02:41:34;;;;;;;;;;;;;;;6.67;91.94;101267.50;5037170;28;1954;-78
2021/05/01 02:44:00;;;;;;;;;;;;;;;6.67;92.19;101271.03;5037300;28;1995;-78
2021/05/01 02:46:26;;;;;;;;;;;;;;;6.69;91.93;101268.78;5024164;28;1938;-78
2021/05/01 02:48:51;;;;;;;;;;;;;;;6.67;91.89;101268.28;5016857;28;1852;-78
2021/05/01 02:51:16;;;;;;;;;;;;;;;6.67;92.08;101262.81;5018836;28;1787;-77
2021/05/01 02:53:42;;;;;;;;;;;;;;;6.65;92.21;101261.50;5031126;28;1996;-78
2021/05/01 02:56:07;;;;;;;;;;;;;;;6.63;92.68;101253.56;5021988;28;1974;-78
2021/05/01 02:58:32;;;;;;;;;;;;;;;6.61;92.65;101252.25;5019807;28;1894;-78
2021/05/01 03:00:58;;;;;;;;;;;;;;;6.57;92.81;101249.31;5035931;28;1937;-79
2021/05/01 03:03:23;;;;;;;;;;;;;;;6.54;92.53;101238.94;5034061;28;1852;-78
2021/05/01 03:05:49;;;;;;;;;;;;;;;6.52;92.86;101239.25;5037142;28;1651;-78
2021/05/01 03:08:14;;;;;;;;;;;;;;;6.50;93.08;101238.72;5034578;28;2467;-78
2021/05/01 03:10:39;;;;;;;;;;;;;;;6.48;93.18;101240.19;5029537;28;1997;-78
2021/05/01 03:13:05;;;;;;;;;;;;;;;6.46;92.76;101240.47;5022270;28;1701;-78
2021/05/01 03:15:30;;;;;;;;;;;;;;;6.47;92.96;101238.53;5021614;28;1976;-77
2021/05/01 03:17:56;;;;;;;;;;;;;;;6.45;92.91;101238.03;5036445;28;2221;-78
2021/05/01 03:20:21;;;;;;;;;;;;;;;6.45;92.86;101238.03;5037586;28;989;-78
2021/05/01 03:22:48;;;;;;;;;;;;;;;6.45;93.12;101238.84;5036789;28;1548;-78
2021/05/01 03:25:14;;;;;;;;;;;;;;;6.46;93.08;101237.72;5036006;28;1911;-78
2021/05/01 03:27:40;;;;;;;;;;;;;;;6.50;93.12;101236.00;5036281;28;2118;-78
2021/05/01 03:30:08;;;;;;;;;;;;;;;6.51;92.93;101232.13;5036373;28;1991;-78
2021/05/01 03:32:34;;;;;;;;;;;;;;;6.54;93.01;101233.44;5037014;28;2144;-78
2021/05/01 03:35:00;;;;;;;;;;;;;;;6.56;93.04;101226.53;5033349;28;1931;-78
2021/05/01 03:37:25;;;;;;;;;;;;;;;6.57;92.92;101230.09;5037281;28;1802;-77
2021/05/01 03:39:50;;;;;;;;;;;;;;;6.60;92.74;101234.97;5045008;28;1935;-77
2021/05/01 03:42:16;;;;;;;;;;;;;;;6.62;92.80;101235.47;5035111;28;1983;-78
2021/05/01 03:44:41;;;;;;;;;;;;;;;6.63;92.61;101233.53;5038446;28;2180;-77
2021/05/01 03:47:07;;;;;;;;;;;;;;;6.61;92.59;101233.88;5040417;28;2340;-77
2021/05/01 03:49:32;;;;;;;;;;;;;;;6.64;92.48;101235.16;5040084;28;1836;-78
2021/05/01 03:51:58;;;;;;;;;;;;;;;6.62;91.99;101235.47;5040985;28;1950;-77
2021/05/01 03:54:23;;;;;;;;;;;;;;;6.62;91.76;101227.25;5019918;28;1987;-78
2021/05/01 03:56:48;;;;;;;;;;;;;;;6.64;92.09;101229.69;5036063;28;2214;-78
2021/05/01 03:59:13;;;;;;;;;;;;;;;6.62;92.20;101232.72;5038576;28;1902;-78
2021/05/01 04:01:39;;;;;;;;;;;;;;;6.58;92.01;101232.53;5036409;28;1942;-78
2021/05/01 04:04:04;;;;;;;;;;;;;;;6.58;92.27;101229.00;5017732;28;1610;-78
2021/05/01 04:06:30;;;;;;;;;;;;;;;6.55;92.15;101226.84;5021130;28;1959;-77
2021/05/01 04:08:56;;;;;;;;;;;;;;;6.56;92.59;101231.22;5035443;28;1953;-78
2021/05/01 04:11:21;;;;;;;;;;;;;;;6.54;92.72;101237.03;5020587;28;1827;-78
2021/05/01 04:13:47;;;;;;;;;;;;;;;6.56;92.27;101225.75;5033286;28;1954;-77
2021/05/01 04:16:17;;;;;;;;;;;;;;;6.57;92.49;101227.34;5036114;28;1842;-79
2021/05/01 04:18:44;;;;;;;;;;;;;;;6.58;92.69;101226.25;5035543;28;1875;-78
2021/05/01 04:21:10;;;;;;;;;;;;;;;6.59;92.35;101227.84;5029928;28;1979;-77
2021/05/01 04:23:35;;;;;;;;;;;;;;;6.60;92.17;101215.75;5023527;28;1939;-78
2021/05/01 04:26:01;;;;;;;;;;;;;;;6.59;92.35;101219.63;5022292;28;2038;-78
2021/05/01 04:28:27;;;;;;;;;;;;;;;6.62;92.64;101219.00;5022632;28;2442;-78
2021/05/01 04:30:54;;;;;;;;;;;;;;;6.64;92.46;101221.44;5030380;28;1902;-80
2021/05/01 04:33:19;;;;;;;;;;;;;;;6.63;91.94;101222.56;5022714;28;1756;-78
2021/05/01 04:35:45;;;;;;;;;;;;;;;6.62;92.38;101226.44;5035915;28;941;-78
2021/05/01 04:38:10;;;;;;;;;;;;;;;6.64;92.33;101221.44;5034809;28;2344;-78
2021/05/01 04:40:35;;;;;;;;;;;;;;;6.66;92.10;101224.69;5029485;28;1842;-79
2021/05/01 04:43:03;;;;;;;;;;;;;;;6.68;92.05;101230.69;5016027;28;793;-78
2021/05/01 04:45:28;;;;;;;;;;;;;;;6.67;91.90;101226.31;5024690;28;1821;-78
2021/05/01 04:47:54;;;;;;;;;;;;;;;6.71;91.82;101235.56;5035389;28;1692;-78
2021/05/01 04:50:20;;;;;;;;;;;;;;;6.72;91.78;101229.75;5033696;28;1724;-77
2021/05/01 04:52:45;;;;;;;;;;;;;;;6.73;91.86;101230.56;5034971;28;2106;-78
2021/05/01 04:55:14;;;;;;;;;;;;;;;6.78;92.38;101241.44;5035627;28;2112;-78
2021/05/01 04:57:48;;;;;;;;;;;;;;;6.83;91.74;101238.56;5044795;28;1962;-78
2021/05/01 05:00:16;;;;;;;;;;;;;;;6.87;91.79;101239.59;5029871;28;1886;-78
2021/05/01 05:02:42;;;;;;;;;;;;;;;6.91;91.41;101240.59;5025120;28;1940;-78
2021/05/01 05:05:09;;;;;;;;;;;;;;;6.91;91.39;101245.28;5031636;28;1872;-79
2021/05/01 05:07:35;;;;;;;;;;;;;;;6.94;91.60;101237.25;5034104;28;1678;-78
2021/05/01 05:10:00;;;;;;;;;;;;;;;6.91;91.95;101242.53;5031939;28;1760;-78
2021/05/01 05:12:26;;;;;;;;;;;;;;;6.87;91.55;101241.50;5033356;28;1617;-78
2021/05/01 05:14:51;;;;;;;;;;;;;;;6.90;91.81;101244.47;5039286;28;1508;-78
2021/05/01 05:17:18;;;;;;;;;;;;;;;6.96;91.73;101232.25;5040741;28;1690;-78
2021/05/01 05:19:43;;;;;;;;;;;;;;;7.05;91.38;101234.25;5038466;28;2370;-79
2021/05/01 05:22:09;;;;;;;;;;;;;;;7.09;91.38;101232.50;5036940;28;1938;-78
2021/05/01 05:24:39;;;;;;;;;;;;;;;7.11;90.66;101235.75;5032116;28;2247;-78
2021/05/01 05:27:05;;;;;;;;;;;;;;;7.13;90.95;101239.81;5023121;28;1856;-79
2021/05/01 05:29:32;;;;;;;;;;;;;;;7.14;90.10;101240.63;5018944;28;1866;-78
2021/05/01 05:31:58;;;;;;;;;;;;;;;7.15;89.63;101237.56;5024295;28;1784;-78
2021/05/01 05:34:23;;;;;;;;;;;;;;;7.22;89.56;101236.34;5040087;28;1221;-79
2021/05/01 05:36:49;;;;;;;;;;;;;;;7.24;88.71;101243.13;5039128;28;2146;-78
2021/05/01 05:39:15;;;;;;;;;;;;;;;7.25;88.38;101244.78;5037634;28;1964;-79
2021/05/01 05:41:41;;;;;;;;;;;;;;;7.33;88.57;101245.94;5039421;28;991;-79
2021/05/01 05:44:06;;;;;;;;;;;;;;;7.42;88.85;101243.25;5039881;28;1817;-78
2021/05/01 05:46:31;;;;;;;;;;;;;;;7.48;87.85;101250.28;5039920;28;1695;-78
2021/05/01 05:48:56;;;;;;;;;;;;;;;7.48;87.07;101248.31;5038838;28;1248;-79
2021/05/01 05:51:22;;;;;;;;;;;;;;;7.59;87.79;101251.63;5038764;28;2016;-78
2021/05/01 05:53:48;;;;;;;;;;;;;;;7.69;88.06;101250.56;5033754;28;2091;-79
2021/05/01 05:56:14;;;;;;;;;;;;;;;7.78;87.57;101243.16;5022022;28;1958;-78
2021/05/01 05:58:40;;;;;;;;;;;;;;;7.85;86.99;101249.03;5038991;28;1886;-79
2021/05/01 06:01:06;;;;;;;;;;;;;;;8.01;87.48;101254.94;5031695;28;2139;-79
2021/05/01 06:03:32;;;;;;;;;;;;;;;8.16;87.59;101247.41;5038971;28;864;-79
2021/05/01 06:06:20;;;;;;;;;;;;;;;8.25;85.74;101249.06;5038392;28;1891;-79
2021/05/01 06:08:45;;;;;;;;;;;;;;;8.45;85.77;101255.94;5025311;28;1842;-78
2021/05/01 06:11:11;;;;;;;;;;;;;;;8.64;83.46;101252.13;5036470;28;2348;-78
2021/05/01 06:13:38;;;;;;;;;;;;;;;8.72;82.76;101253.25;5025626;28;1884;-79
2021/05/01 06:16:05;;;;;;;;;;;;;;;8.82;82.33;101256.53;5038155;28;1975;-78
2021/05/01 06:18:36;;;;;;;;;;;;;;;8.84;81.39;101254.25;5037772;28;1938;-79
2021/05/01 06:21:02;;;;;;;;;;;;;;;8.88;80.18;101267.41;5037307;28;1603;-78
2021/05/01 06:23:27;;;;;;;;;;;;;;;9.01;81.11;101252.66;5030392;28;2834;-79
2021/05/01 06:25:54;;;;;;;;;;;;;;;8.96;82.03;101250.88;5031081;28;1904;-79
2021/05/01 06:28:20;;;;;;;;;;;;;;;8.92;81.86;101255.41;5036404;28;2870;-79
2021/05/01 06:30:45;;;;;;;;;;;;;;;9.02;81.90;101255.09;5021643;28;1837;-78
2021/05/01 06:33:15;;;;;;;;;;;;;;;9.11;81.04;101257.03;5029384;28;2120;-79
2021/05/01 06:35:43;;;;;;;;;;;;;;;9.00;80.67;101262.88;5032335;28;1390;-79
2021/05/01 06:38:08;;;;;;;;;;;;;;;8.77;80.11;101262.19;5052933;28;1971;-78
2021/05/01 06:40:39;;;;;;;;;;;;;;;9.03;80.57;101262.22;5026334;28;2092;-78
2021/05/01 06:43:47;;;;;;;;;;;;;;;9.79;77.63;101269.13;5019586;28;901;-79
2021/05/01 06:46:18;;;;;;;;;;;;;;;10.54;73.16;101260.44;5005564;28;2245;-78
2021/05/01 06:48:48;;;;;;;;;;;;;;;11.13;72.10;101263.47;5037561;28;1596;-78
2021/05/01 06:51:14;;;;;;;;;;;;;;;11.39;73.16;101261.28;5024004;28;2146;-79
2021/05/01 06:53:41;;;;;;;;;;;;;;;11.30;71.77;101257.81;5038209;28;2121;-79
2021/05/01 06:56:07;;;;;;;;;;;;;;;10.84;71.69;101259.59;5035341;28;2426;-79
2021/05/01 06:58:33;;;;;;;;;;;;;;;10.77;73.50;101254.59;5037557;28;1963;-78
2021/05/01 07:01:03;;;;;;;;;;;;;;;10.70;73.55;101262.63;5032064;28;2069;-81
2021/05/01 07:03:31;;;;;;;;;;;;;;;10.96;74.55;101256.91;5033231;28;1979;-78
2021/05/01 07:05:59;;;;;;;;;;;;;;;11.49;73.54;101260.06;5035939;28;2024;-79
2021/05/01 07:08:25;;;;;;;;;;;;;;;11.86;72.23;101257.41;5036997;28;1669;-77
2021/05/01 07:10:51;;;;;;;;;;;;;;;12.37;72.10;101252.44;5036992;28;1683;-78
2021/05/01 07:13:16;;;;;;;;;;;;;;;12.99;69.04;101263.44;5024503;28;1999;-78
2021/05/01 07:15:42;;;;;;;;;;;;;;;13.68;68.48;101261.47;5017827;28;2138;-77
2021/05/01 07:18:10;;;;;;;;;;;;;;;13.87;66.22;101265.53;5028986;28;2387;-77
2021/05/01 07:20:36;;;;;;;;;;;;;;;13.64;63.79;101268.91;5036604;28;2215;-76
2021/05/01 07:23:02;;;;;;;;;;;;;;;13.51;64.53;101268.16;5027358;28;1836;-77
2021/05/01 07:25:27;;;;;;;;;;;;;;;13.30;66.10;101268.31;5029342;28;2469;-76
2021/05/01 07:28:10;;;;;;;;;;;;;;;12.60;67.99;101268.59;5016556;28;1197;-76
2021/05/01 07:30:39;;;;;;;;;;;;;;;12.08;69.46;101260.91;5022131;28;1768;-77
2021/05/01 07:33:21;;;;;;;;;;;;;;;11.41;70.24;101274.78;5024438;28;2138;-76
2021/05/01 07:35:50;;;;;;;;;;;;;;;10.55;72.21;101280.56;5035055;28;2081;-77
2021/05/01 07:38:16;;;;;;;;;;;;;;;10.10;74.46;101275.53;5032381;28;1961;-76
2021/05/01 07:40:43;;;;;;;;;;;;;;;9.71;75.40;101286.50;5037183;28;1054;-77
2021/05/01 07:43:15;;;;;;;;;;;;;;;9.75;75.40;101286.66;5034290;28;2171;-75
2021/05/01 07:45:40;;;;;;;;;;;;;;;9.91;74.68;101290.50;5028072;28;1765;-77
2021/05/01 07:48:11;;;;;;;;;;;;;;;10.02;73.63;101288.22;5036357;28;2119;-76
2021/05/01 07:50:36;;;;;;;;;;;;;;;10.12;74.35;101281.53;5038853;28;2311;-76
2021/05/01 07:53:03;;;;;;;;;;;;;;;9.88;74.25;101280.16;5037598;28;888;-77
2021/05/01 07:55:28;;;;;;;;;;;;;;;9.80;75.80;101289.25;5029191;28;2090;-76
2021/05/01 07:57:53;;;;;;;;;;;;;;;9.65;75.35;101298.03;5017273;28;1178;-76
2021/05/01 08:00:20;;;;;;;;;;;;;;;9.37;75.57;101296.41;5024521;28;1953;-76
2021/05/01 08:02:46;;;;;;;;;;;;;;;9.44;75.97;101293.19;5042881;28;1827;-77
2021/05/01 08:05:11;;;;;;;;;;;;;;;9.65;76.30;101289.75;5036232;28;2058;-76
2021/05/01 08:07:38;;;;;;;;;;;;;;;10.26;74.08;101278.56;5035998;28;1898;-76
2021/05/01 08:10:04;;;;;;;;;;;;;;;11.95;70.27;101274.75;5032359;28;2477;-77
2021/05/01 08:12:30;;;;;;;;;;;;;;;13.12;65.00;101264.22;5016545;28;1636;-76
2021/05/01 08:14:55;;;;;;;;;;;;;;;13.70;63.38;101273.03;5020742;28;1790;-76
2021/05/01 08:17:20;;;;;;;;;;;;;;;14.98;63.26;101270.22;5017623;28;2136;-76
2021/05/01 08:19:46;;;;;;;;;;;;;;;15.01;60.68;101277.84;5027739;28;1956;-76
2021/05/01 08:22:11;;;;;;;;;;;;;;;13.70;60.31;101277.78;5033907;28;1742;-77
2021/05/01 08:24:36;;;;;;;;;;;;;;;12.31;63.63;101289.00;5028977;28;1958;-76
2021/05/01 08:27:02;;;;;;;;;;;;;;;11.35;65.51;101278.88;5033226;28;1800;-76
2021/05/01 08:29:27;;;;;;;;;;;;;;;11.00;66.72;101270.88;5036079;28;1268;-76
2021/05/01 08:31:53;;;;;;;;;;;;;;;11.28;68.02;101277.50;5036910;28;2272;-77
2021/05/01 08:34:18;;;;;;;;;;;;;;;12.31;64.95;101267.66;5028560;28;2128;-76
2021/05/01 08:36:43;;;;;;;;;;;;;;;13.58;62.79;101275.06;5036502;28;951;-76
2021/05/01 08:39:09;;;;;;;;;;;;;;;15.16;56.43;101268.66;5035277;28;1979;-77
2021/05/01 08:41:34;;;;;;;;;;;;;;;16.53;54.00;101260.84;5036207;28;1023;-77
2021/05/01 08:44:08;;;;;;;;;;;;;;;18.04;50.45;101265.53;5034905;28;2182;-76
2021/05/01 08:46:37;;;;;;;;;;;;;;;19.91;45.54;101249.00;5036117;28;1916;-76
2021/05/01 08:49:03;;;;;;;;;;;;;;;20.04;43.51;101255.81;5039651;28;2110;-77
2021/05/01 08:51:28;;;;;;;;;;;;;;;17.53;46.26;101262.56;5072422;28;971;-76
2021/05/01 08:53:53;;;;;;;;;;;;;;;16.25;50.17;101263.19;5040727;28;1915;-76
2021/05/01 08:56:19;;;;;;;;;;;;;;;15.07;52.79;101259.72;5040052;28;2098;-76
2021/05/01 08:58:44;;;;;;;;;;;;;;;16.30;50.87;101265.63;5040149;28;1936;-77
2021/05/01 09:01:13;;;;;;;;;;;;;;;18.88;45.90;101253.03;5039720;28;782;-76
2021/05/01 09:03:38;;;;;;;;;;;;;;;21.26;38.34;101254.03;5040178;28;1871;-76
2021/05/01 09:06:06;;;;;;;;;;;;;;;22.95;35.78;101256.41;5039664;28;2138;-76
2021/05/01 09:08:31;;;;;;;;;;;;;;;23.35;35.68;101248.28;5038914;28;2078;-76
2021/05/01 09:11:02;;;;;;;;;;;;;;;21.46;36.39;101259.97;5039255;28;983;-76
2021/05/01 09:13:28;;;;;;;;;;;;;;;18.00;42.03;101258.31;5039692;28;850;-78
2021/05/01 09:15:57;;;;;;;;;;;;;;;16.15;46.67;101253.47;5040538;28;782;-77
2021/05/01 09:18:22;;;;;;;;;;;;;;;14.60;50.47;101266.19;5038699;28;2239;-76
2021/05/01 09:20:48;;;;;;;;;;;;;;;14.15;51.31;101273.00;5039935;28;1976;-76
2021/05/01 09:23:13;;;;;;;;;;;;;;;13.68;51.80;101280.09;5039425;28;2007;-76
2021/05/01 09:25:54;;;;;;;;;;;;;;;13.42;54.96;101283.34;5038761;28;1927;-77
2021/05/01 09:28:21;;;;;;;;;;;;;;;12.52;55.75;101286.13;5039680;28;2000;-76
2021/05/01 09:31:05;;;;;;;;;;;;;;;11.80;57.92;101280.91;5039745;28;2079;-77
2021/05/01 09:33:36;;;;;;;;;;;;;;;11.23;60.68;101283.22;5039795;28;833;-76
2021/05/01 09:36:16;;;;;;;;;;;;;;;10.99;61.54;101285.84;5056380;28;1859;-76
2021/05/01 09:38:46;;;;;;;;;;;;;;;11.61;59.65;101286.94;5037325;28;2092;-76
2021/05/01 09:41:19;;;;;;;;;;;;;;;12.52;57.23;101284.16;5041935;28;1895;-76
2021/05/01 09:44:03;;;;;;;;;;;;;;;13.85;52.40;101284.53;5039388;28;840;-76
2021/05/01 09:46:50;;;;;;;;;;;;;;;14.46;50.12;101267.44;5040061;28;927;-76
2021/05/01 09:49:17;;;;;;;;;;;;;;;14.42;50.54;101262.97;5038314;28;1884;-76
2021/05/01 09:51:53;;;;;;;;;;;;;;;14.56;51.88;101266.06;5039518;28;887;-76
2021/05/01 09:54:24;;;;;;;;;;;;;;;16.29;47.46;101261.25;5039245;28;1935;-77
2021/05/01 09:56:51;;;;;;;;;;;;;;;16.12;46.89;101252.19;5039045;28;856;-76
2021/05/01 09:59:18;;;;;;;;;;;;;;;15.95;47.24;101253.53;5037537;28;2063;-77
2021/05/01 10:01:55;;;;;;;;;;;;;;;16.11;47.65;101252.59;5039157;28;813;-77
2021/05/01 10:04:21;;;;;;;;;;;;;;;16.62;45.90;101251.41;5038683;28;2088;-76
2021/05/01 10:06:51;;;;;;;;;;;;;;;16.75;44.83;101241.66;5039189;28;920;-77
2021/05/01 10:09:21;;;;;;;;;;;;;;;16.40;45.56;101239.13;5036473;28;1888;-77
2021/05/01 10:11:47;;;;;;;;;;;;;;;17.51;43.73;101237.88;5039044;28;1828;-77
2021/05/01 10:14:15;;;;;;;;;;;;;;;18.75;43.46;101224.53;5039104;28;856;-76
2021/05/01 10:16:52;;;;;;;;;;;;;;;20.60;36.63;101221.75;5039043;28;1852;-77
2021/05/01 10:19:18;;;;;;;;;;;;;;;22.29;31.94;101215.28;5038325;28;1951;-76
2021/05/01 10:21:46;;;;;;;;;;;;;;;22.31;30.67;101218.47;5038842;28;856;-77
2021/05/01 10:24:12;;;;;;;;;;;;;;;22.77;30.79;101222.84;5038287;28;1942;-76
2021/05/01 10:26:48;;;;;;;;;;;;;;;22.85;30.03;101213.06;5038243;28;2135;-77
2021/05/01 10:29:34;;;;;;;;;;;;;;;22.64;30.29;101207.69;5037729;28;1205;-77
2021/05/01 10:32:00;;;;;;;;;;;;;;;22.67;30.32;101204.84;5040233;28;899;-77
2021/05/01 10:34:26;;;;;;;;;;;;;;;19.76;34.02;101211.78;5040321;28;1069;-76
2021/05/01 10:36:55;;;;;;;;;;;;;;;18.49;39.20;101212.38;5058615;28;1935;-77
2021/05/01 10:39:21;;;;;;;;;;;;;;;17.68;40.18;101214.09;5039291;28;1995;-77
2021/05/01 10:42:00;;;;;;;;;;;;;;;15.92;43.83;101223.63;5043628;28;813;-76
2021/05/01 10:44:25;;;;;;;;;;;;;;;14.53;47.78;101229.88;5037516;28;1887;-77
2021/05/01 10:47:09;;;;;;;;;;;;;;;14.05;48.15;101229.91;5038204;28;1958;-77
2021/05/01 10:49:36;;;;;;;;;;;;;;;13.71;48.44;101230.25;5036832;28;1248;-76
2021/05/01 10:52:13;;;;;;;;;;;;;;;13.96;48.51;101238.41;5037913;28;2032;-76
2021/05/01 10:54:55;;;;;;;;;;;;;;;13.48;49.30;101246.66;5038326;28;2064;-76
2021/05/01 10:57:21;;;;;;;;;;;;;;;13.15;50.35;101250.47;5037991;28;2088;-76
2021/05/01 10:59:59;;;;;;;;;;;;;;;12.85;52.17;101235.28;5037804;28;1886;-76
2021/05/01 11:02:32;;;;;;;;;;;;;;;13.32;52.35;101241.09;5037706;28;908;-76
2021/05/01 11:05:00;;;;;;;;;;;;;;;13.70;49.50;101242.53;5037626;28;2011;-76
2021/05/01 11:07:41;;;;;;;;;;;;;;;13.27;49.88;101249.63;5037876;28;872;-76
2021/05/01 11:10:09;;;;;;;;;;;;;;;12.53;51.78;101249.78;5036763;28;2258;-76
2021/05/01 11:12:39;;;;;;;;;;;;;;;12.50;52.55;101246.88;5037626;28;857;-76
2021/05/01 11:15:11;;;;;;;;;;;;;;;12.54;51.63;101242.25;5038326;28;841;-76
2021/05/01 11:17:47;;;;;;;;;;;;;;;12.71;51.25;101239.25;5037602;28;2102;-76
2021/05/01 11:20:15;;;;;;;;;;;;;;;13.01;51.53;101240.91;5037217;28;1959;-76
2021/05/01 11:22:45;;;;;;;;;;;;;;;13.39;50.83;101245.19;5037025;28;1899;-76
2021/05/01 11:25:13;;;;;;;;;;;;;;;13.37;48.64;101240.00;5037034;28;2075;-78
2021/05/01 11:27:41;;;;;;;;;;;;;;;13.47;49.62;101249.78;5036541;28;896;-76
2021/05/01 11:30:09;;;;;;;;;;;;;;;14.39;46.57;101238.69;5036064;28;1248;-76
2021/05/01 11:32:36;;;;;;;;;;;;;;;14.48;46.82;101230.94;5037372;28;984;-76
2021/05/01 11:35:10;;;;;;;;;;;;;;;15.17;45.14;101234.09;5036207;28;2150;-76
2021/05/01 11:37:48;;;;;;;;;;;;;;;15.07;44.67;101247.78;5036624;28;2080;-76
2021/05/01 11:40:17;;;;;;;;;;;;;;;15.07;43.79;101231.09;5038527;28;1948;-76
2021/05/01 11:42:44;;;;;;;;;;;;;;;15.77;42.80;101235.69;5037278;28;1840;-76
2021/05/01 11:45:25;;;;;;;;;;;;;;;15.32;42.85;101242.75;5035798;28;1625;-76
2021/05/01 11:47:52;;;;;;;;;;;;;;;14.93;43.03;101239.94;5036218;28;1998;-76
2021/05/01 11:50:19;;;;;;;;;;;;;;;14.89;43.78;101239.84;5037655;28;1430;-76
2021/05/01 11:53:02;;;;;;;;;;;;;;;15.46;43.11;101236.66;5036917;28;1094;-75
2021/05/01 11:55:31;;;;;;;;;;;;;;;15.26;43.48;101238.63;5036536;28;1967;-75
2021/05/01 11:57:59;;;;;;;;;;;;;;;15.69;42.38;101245.03;5034877;28;2048;-76
2021/05/01 12:00:30;;;;;;;;;;;;;;;15.60;42.09;101237.72;5068989;28;1901;-75
2021/05/01 12:02:56;;;;;;;;;;;;;;;16.46;40.72;101234.84;5022185;28;1888;-76
2021/05/01 12:05:23;;;;;;;;;;;;;;;17.69;39.82;101221.28;5036638;28;846;-76
2021/05/01 12:08:02;;;;;;;;;;;;;;;18.33;35.18;101223.88;5036784;28;1721;-77
2021/05/01 12:10:27;;;;;;;;;;;;;;;17.70;37.37;101225.69;5036269;28;2222;-76
2021/05/01 12:12:58;;;;;;;;;;;;;;;17.11;36.25;101222.63;5037143;28;1050;-75
2021/05/01 12:15:38;;;;;;;;;;;;;;;17.17;36.50;101220.31;5036951;28;2110;-77
2021/05/01 12:18:05;;;;;;;;;;;;;;;19.89;32.04;101204.56;5017850;28;2136;-76
2021/05/01 12:20:33;;;;;;;;;;;;;;;20.48;31.06;101198.50;5036226;28;1961;-77
2021/05/01 12:23:09;;;;;;;;;;;;;;;21.31;29.81;101201.06;5036445;28;1872;-76
2021/05/01 12:25:43;;;;;;;;;;;;;;;23.78;26.08;101198.97;5036550;28;2118;-76
2021/05/01 12:28:10;;;;;;;;;;;;;;;22.95;27.11;101205.72;5036012;28;2165;-77
2021/05/01 12:30:39;;;;;;;;;;;;;;;23.84;26.58;101191.66;5036079;28;2253;-76
2021/05/01 12:33:36;;;;;;;;;;;;;;;22.56;27.14;101206.97;5051604;28;919;-77
2021/05/01 12:36:03;;;;;;;;;;;;;;;21.18;29.59;101194.31;5004047;28;2028;-76
2021/05/01 12:38:30;;;;;;;;;;;;;;;23.32;26.34;101187.16;5034624;28;2078;-77
2021/05/01 12:41:19;;;;;;;;;;;;;;;23.53;26.01;101188.88;5036059;28;924;-76
2021/05/01 12:43:47;;;;;;;;;;;;;;;21.64;27.83;101198.09;5025854;28;1218;-76
2021/05/01 12:46:26;;;;;;;;;;;;;;;20.45;30.26;101193.72;5036122;28;889;-78
2021/05/01 12:48:53;;;;;;;;;;;;;;;22.48;27.00;101178.09;5035421;28;1296;-76
2021/05/01 12:51:20;;;;;;;;;;;;;;;23.28;27.26;101178.75;5037478;28;1844;-77
2021/05/01 12:53:46;;;;;;;;;;;;;;;21.28;28.18;101179.41;5035667;28;1987;-76
2021/05/01 12:56:23;;;;;;;;;;;;;;;18.64;32.05;101187.34;5036197;28;1152;-77